createdAt,value
2018-11-01T00:02:04.055Z,17.80
2018-11-01T00:04:31.303Z,21.40
2018-11-01T00:06:58.750Z,20.30
2018-11-01T00:09:25.777Z,17.57
2018-11-01T00:11:53.099Z,17.27
2018-11-01T00:14:20.741Z,18.40
2018-11-01T00:16:47.787Z,21.13
2018-11-01T00:19:14.855Z,19.20
2018-11-01T00:21:42.175Z,20.70
2018-11-01T00:24:09.542Z,25.90
2018-11-01T00:26:36.576Z,22.83
2018-11-01T00:29:03.920Z,16.70
2018-11-01T00:31:30.974Z,18.47
2018-11-01T00:33:58.017Z,21.27
2018-11-01T00:36:25.580Z,19.33
2018-11-01T00:38:52.643Z,17.07
2018-11-01T00:41:19.671Z,24.30
2018-11-01T00:43:47.089Z,19.17
2018-11-01T00:46:14.117Z,28.47
2018-11-01T00:48:41.181Z,26.83
2018-11-01T00:51:08.577Z,23.83
2018-11-01T00:53:35.611Z,30.33
2018-11-01T00:56:02.748Z,27.07
2018-11-01T00:58:29.780Z,22.40
2018-11-01T01:00:56.891Z,19.37
2018-11-01T01:03:23.933Z,19.53
2018-11-01T01:05:51.267Z,24.00
2018-11-01T01:08:18.440Z,18.40
2018-11-01T01:10:45.456Z,23.80
2018-11-01T01:13:12.775Z,19.87
2018-11-01T01:15:39.823Z,22.20
2018-11-01T01:18:06.943Z,25.73
2018-11-01T01:20:34.276Z,23.83
2018-11-01T01:23:02.070Z,22.23
2018-11-01T01:25:29.104Z,24.37
2018-11-01T01:27:56.132Z,24.77
2018-11-01T01:30:23.340Z,25.43
2018-11-01T01:32:50.388Z,30.33
2018-11-01T01:35:17.872Z,24.47
2018-11-01T01:37:45.112Z,27.57
2018-11-01T01:40:12.166Z,28.20
2018-11-01T01:42:45.407Z,34.30
2018-11-01T01:45:12.563Z,26.40
2018-11-01T01:47:39.591Z,26.40
2018-11-01T01:50:08.184Z,29.17
2018-11-01T01:52:35.271Z,28.13
2018-11-01T01:55:02.291Z,36.43
2018-11-01T01:57:29.416Z,28.97
2018-11-01T01:59:56.432Z,33.23
2018-11-01T02:02:23.460Z,33.00
2018-11-01T02:04:50.992Z,27.37
2018-11-01T02:07:18.243Z,29.50
2018-11-01T02:09:45.272Z,27.27
2018-11-01T02:12:12.629Z,36.90
2018-11-01T02:14:39.656Z,28.00
2018-11-01T02:17:06.715Z,27.70
2018-11-01T02:19:33.787Z,27.83
2018-11-01T02:22:01.047Z,25.57
2018-11-01T02:24:28.075Z,34.73
2018-11-01T02:26:55.410Z,25.93
2018-11-01T02:29:22.436Z,26.37
2018-11-01T02:31:49.452Z,27.10
2018-11-01T02:34:16.552Z,26.50
2018-11-01T02:36:43.600Z,34.30
2018-11-01T02:39:11.616Z,25.93
2018-11-01T02:41:38.680Z,27.83
2018-11-01T02:44:05.720Z,32.80
2018-11-01T02:46:32.732Z,28.57
2018-11-01T02:48:59.788Z,25.57
2018-11-01T02:51:26.916Z,28.47
2018-11-01T02:53:53.992Z,27.63
2018-11-01T02:56:21.440Z,35.73
2018-11-01T02:58:48.623Z,30.87
2018-11-01T03:01:17.329Z,28.73
2018-11-01T03:03:45.380Z,29.10
2018-11-01T03:06:12.542Z,30.33
2018-11-01T03:08:39.776Z,31.47
2018-11-01T03:11:07.353Z,27.10
2018-11-01T03:13:34.433Z,34.30
2018-11-01T03:16:01.871Z,32.33
2018-11-01T03:18:29.015Z,35.20
2018-11-01T03:20:56.120Z,33.50
2018-11-01T03:23:23.360Z,32.90
2018-11-01T03:25:50.768Z,32.40
2018-11-01T03:28:17.896Z,30.90
2018-11-01T03:30:44.973Z,37.20
2018-11-01T03:33:12.271Z,30.30
2018-11-01T03:35:39.376Z,42.63
2018-11-01T03:38:06.439Z,29.40
2018-11-01T03:40:33.523Z,31.83
2018-11-01T03:43:00.628Z,41.10
2018-11-01T03:45:27.755Z,29.77
2018-11-01T03:47:54.724Z,36.17
2018-11-01T03:50:21.793Z,35.10
2018-11-01T03:52:48.866Z,36.40
2018-11-01T03:55:16.205Z,34.70
2018-11-01T03:57:43.312Z,39.10
2018-11-01T04:00:11.865Z,38.97
2018-11-01T04:02:39.300Z,35.90
2018-11-01T04:05:06.333Z,33.00
2018-11-01T04:07:33.357Z,35.90
2018-11-01T04:10:00.442Z,34.50
2018-11-01T04:12:27.472Z,37.37
2018-11-01T04:14:54.646Z,36.17
2018-11-01T04:17:21.632Z,33.70
2018-11-01T04:19:48.692Z,36.43
2018-11-01T04:22:15.724Z,34.93
2018-11-01T04:24:43.034Z,33.47
2018-11-01T04:27:10.057Z,31.97
2018-11-01T04:29:37.127Z,36.50
2018-11-01T04:32:04.239Z,40.07
2018-11-01T04:34:31.281Z,35.33
2018-11-01T04:36:58.303Z,36.73
2018-11-01T04:39:25.636Z,36.93
2018-11-01T04:41:52.688Z,33.20
2018-11-01T04:44:19.746Z,34.60
2018-11-01T04:46:46.772Z,38.20
2018-11-01T04:49:13.795Z,38.53
2018-11-01T04:51:40.910Z,37.77
2018-11-01T04:54:08.329Z,39.27
2018-11-01T04:56:35.358Z,38.43
2018-11-01T04:59:02.523Z,41.27
2018-11-01T05:01:29.793Z,35.50
2018-11-01T05:03:56.888Z,41.23
2018-11-01T05:06:23.991Z,41.83
2018-11-01T05:08:51.641Z,38.30
2018-11-01T05:11:18.984Z,40.07
2018-11-01T05:13:47.156Z,39.97
2018-11-01T05:16:14.355Z,43.50
2018-11-01T05:18:41.896Z,46.80
2018-11-01T05:21:08.984Z,43.90
2018-11-01T05:23:36.045Z,44.60
2018-11-01T05:26:03.559Z,41.47
2018-11-01T05:28:30.439Z,44.10
2018-11-01T05:30:57.935Z,45.03
2018-11-01T05:33:24.963Z,45.30
2018-11-01T05:35:51.984Z,50.50
2018-11-01T05:38:19.044Z,41.50
2018-11-01T05:40:46.065Z,45.40
2018-11-01T05:43:19.324Z,43.83
2018-11-01T05:45:46.360Z,47.47
2018-11-01T05:48:14.295Z,45.40
2018-11-01T05:50:41.392Z,42.13
2018-11-01T05:53:08.415Z,46.20
2018-11-01T05:55:35.472Z,47.20
2018-11-01T05:58:02.620Z,46.17
2018-11-01T06:00:29.652Z,50.57
2018-11-01T06:02:56.680Z,52.03
2018-11-01T06:05:24.105Z,47.37
2018-11-01T06:07:55.360Z,52.93
2018-11-01T06:10:22.400Z,47.90
2018-11-01T06:12:49.535Z,50.80
2018-11-01T06:15:16.616Z,54.53
2018-11-01T06:17:43.650Z,56.07
2018-11-01T06:20:11.422Z,57.57
2018-11-01T06:22:38.451Z,50.27
2018-11-01T06:25:05.796Z,60.00
2018-11-01T06:27:32.828Z,57.03
2018-11-01T06:29:59.879Z,51.87
2018-11-01T06:32:26.899Z,54.30
2018-11-01T06:34:57.433Z,51.80
2018-11-01T06:37:24.467Z,56.50
2018-11-01T06:39:51.487Z,57.70
2018-11-01T06:42:18.918Z,54.93
2018-11-01T06:44:45.988Z,65.03
2018-11-01T06:47:13.040Z,58.83
2018-11-01T06:49:40.080Z,64.37
2018-11-01T06:52:07.112Z,63.87
2018-11-01T06:54:34.161Z,57.60
2018-11-01T06:57:01.821Z,59.93
2018-11-01T06:59:29.015Z,70.33
2018-11-01T07:01:55.968Z,56.40
2018-11-01T07:04:23.532Z,75.70
2018-11-01T07:06:50.559Z,55.17
2018-11-01T07:09:17.620Z,63.70
2018-11-01T07:11:44.668Z,62.67
2018-11-01T07:14:11.723Z,58.07
2018-11-01T07:16:38.820Z,59.90
2018-11-01T07:19:06.280Z,63.13
2018-11-01T07:21:33.307Z,58.70
2018-11-01T07:24:00.371Z,59.83
2018-11-01T07:26:27.583Z,61.83
2018-11-01T07:28:54.616Z,60.80
2018-11-01T07:31:21.652Z,56.57
2018-11-01T07:33:48.720Z,62.13
2018-11-01T07:36:15.743Z,63.03
2018-11-01T07:38:42.779Z,58.77
2018-11-01T07:41:09.851Z,58.07
2018-11-01T07:43:36.881Z,61.80
2018-11-01T07:46:03.940Z,58.77
2018-11-01T07:48:31.034Z,60.93
2018-11-01T07:50:58.048Z,61.53
2018-11-01T07:53:25.085Z,61.97
2018-11-01T07:55:52.150Z,90.97
2018-11-01T07:58:19.265Z,60.90
2018-11-01T08:00:46.262Z,52.73
2018-11-01T08:03:13.529Z,63.13
2018-11-01T08:05:40.583Z,59.67
2018-11-01T08:08:07.584Z,62.73
2018-11-01T08:10:34.619Z,55.23
2018-11-01T08:13:01.664Z,60.53
2018-11-01T08:15:28.700Z,55.47
2018-11-01T08:17:56.152Z,59.00
2018-11-01T08:20:23.394Z,65.40
2018-11-01T08:22:50.399Z,52.57
2018-11-01T08:25:17.699Z,59.30
2018-11-01T08:27:44.777Z,58.90
2018-11-01T08:30:14.300Z,56.30
2018-11-01T08:32:41.381Z,58.27
2018-11-01T08:35:09.440Z,57.20
2018-11-01T08:37:36.576Z,60.60
2018-11-01T08:40:04.288Z,56.20
2018-11-01T08:42:31.319Z,57.23
2018-11-01T08:44:58.360Z,66.73
2018-11-01T08:47:25.508Z,57.53
2018-11-01T08:49:52.538Z,52.70
2018-11-01T08:52:19.604Z,57.60
2018-11-01T08:54:46.643Z,53.10
2018-11-01T08:57:13.947Z,61.93
2018-11-01T08:59:41.041Z,53.50
2018-11-01T09:02:08.444Z,65.23
2018-11-01T09:04:35.494Z,58.33
2018-11-01T09:07:02.587Z,55.50
2018-11-01T09:09:29.708Z,61.33
2018-11-01T09:11:56.728Z,53.60
2018-11-01T09:14:23.786Z,54.07
2018-11-01T09:16:50.825Z,54.97
2018-11-01T09:19:18.005Z,59.13
2018-11-01T09:21:45.116Z,56.17
2018-11-01T09:24:12.584Z,54.23
2018-11-01T09:26:39.624Z,49.33
2018-11-01T09:29:06.644Z,52.00
2018-11-01T09:31:35.266Z,48.10
2018-11-01T09:34:02.513Z,55.53
2018-11-01T09:36:31.071Z,50.97
2018-11-01T09:38:59.770Z,58.53
2018-11-01T09:41:26.847Z,48.57
2018-11-01T09:43:53.871Z,50.40
2018-11-01T09:46:21.360Z,53.33
2018-11-01T09:48:48.283Z,56.57
2018-11-01T09:51:15.330Z,49.00
2018-11-01T09:53:42.684Z,50.63
2018-11-01T09:56:09.753Z,57.73
2018-11-01T09:58:36.811Z,48.60
2018-11-01T10:01:03.955Z,45.40
2018-11-01T10:03:30.960Z,49.87
2018-11-01T10:05:58.135Z,43.47
2018-11-01T10:08:25.485Z,43.73
2018-11-01T10:10:52.508Z,48.30
2018-11-01T10:13:19.539Z,47.33
2018-11-01T10:15:46.796Z,53.03
2018-11-01T10:18:14.118Z,50.03
2018-11-01T10:20:40.682Z,53.27
2018-11-01T10:23:08.129Z,54.80
2018-11-01T10:25:35.136Z,54.27
2018-11-01T10:28:02.236Z,47.10
2018-11-01T10:30:29.303Z,44.63
2018-11-01T10:32:56.329Z,41.47
2018-11-01T10:35:23.364Z,50.13
2018-11-01T10:37:50.453Z,45.20
2018-11-01T10:40:18.659Z,41.90
2018-11-01T10:42:45.727Z,45.73
2018-11-01T10:45:13.043Z,34.03
2018-11-01T10:47:40.151Z,36.30
2018-11-01T10:50:08.084Z,39.47
2018-11-01T10:52:35.175Z,37.87
2018-11-01T10:55:02.195Z,37.73
2018-11-01T10:57:29.220Z,34.57
2018-11-01T10:59:56.304Z,41.93
2018-11-01T11:02:24.044Z,35.53
2018-11-01T11:04:51.079Z,34.83
2018-11-01T11:07:18.405Z,34.23
2018-11-01T11:09:45.528Z,27.73
2018-11-01T11:12:12.668Z,32.57
2018-11-01T11:14:39.783Z,33.17
2018-11-01T11:17:06.807Z,36.43
2018-11-01T11:19:33.929Z,27.90
2018-11-01T11:22:01.328Z,38.23
2018-11-01T11:24:28.364Z,34.53
2018-11-01T11:26:55.556Z,31.20
2018-11-01T11:29:22.980Z,30.93
2018-11-01T11:31:50.037Z,31.23
2018-11-01T11:34:17.097Z,44.20
2018-11-01T11:36:44.201Z,32.17
2018-11-01T11:39:12.316Z,28.77
2018-11-01T11:41:39.672Z,32.97
2018-11-01T11:44:06.983Z,27.73
2018-11-01T11:46:34.135Z,29.73
2018-11-01T11:49:01.427Z,37.90
2018-11-01T11:51:28.652Z,32.23
2018-11-01T11:53:55.695Z,31.93
2018-11-01T11:56:22.743Z,30.10
2018-11-01T11:58:50.127Z,40.47
2018-11-01T12:01:17.179Z,29.87
2018-11-01T12:03:44.225Z,31.40
2018-11-01T12:06:11.596Z,25.17
2018-11-01T12:08:38.685Z,27.20
2018-11-01T12:11:05.723Z,28.10
2018-11-01T12:13:33.015Z,29.30
2018-11-01T12:16:00.044Z,27.50
2018-11-01T12:18:27.118Z,31.37
2018-11-01T12:20:54.472Z,30.37
2018-11-01T12:23:21.516Z,26.57
2018-11-01T12:25:48.593Z,28.63
2018-11-01T12:28:15.655Z,29.60
2018-11-01T12:30:42.685Z,25.50
2018-11-01T12:33:09.708Z,29.70
2018-11-01T12:35:37.284Z,26.43
2018-11-01T12:38:04.340Z,34.30
2018-11-01T12:40:31.395Z,29.17
2018-11-01T12:42:58.701Z,29.90
2018-11-01T12:45:25.747Z,27.23
2018-11-01T12:47:52.812Z,29.43
2018-11-01T12:50:20.009Z,27.47
2018-11-01T12:52:47.001Z,26.93
2018-11-01T12:55:14.088Z,26.90
2018-11-01T12:57:41.529Z,27.10
2018-11-01T13:00:09.812Z,27.33
2018-11-01T13:02:36.937Z,24.20
2018-11-01T13:05:04.252Z,23.80
2018-11-01T13:07:31.283Z,27.90
2018-11-01T13:09:58.331Z,29.10
2018-11-01T13:12:25.708Z,30.03
2018-11-01T13:14:52.781Z,25.60
2018-11-01T13:17:19.856Z,29.27
2018-11-01T13:19:47.306Z,40.53
2018-11-01T13:22:14.364Z,36.07
2018-11-01T13:24:41.410Z,30.20
2018-11-01T13:27:08.717Z,34.10
2018-11-01T13:29:35.749Z,35.47
2018-11-01T13:32:02.812Z,37.37
2018-11-01T13:34:29.881Z,33.37
2018-11-01T13:36:56.926Z,36.47
2018-11-01T13:39:24.150Z,42.23
2018-11-01T13:41:51.599Z,34.00
2018-11-01T13:44:18.628Z,43.90
2018-11-01T13:46:45.748Z,35.70
2018-11-01T13:49:13.222Z,38.40
2018-11-01T13:51:40.288Z,34.77
2018-11-01T13:54:07.352Z,35.23
2018-11-01T13:56:34.815Z,36.20
2018-11-01T13:59:01.803Z,33.57
2018-11-01T14:01:28.828Z,38.07
2018-11-01T14:03:55.979Z,38.83
2018-11-01T14:06:23.110Z,44.33
2018-11-01T14:08:50.089Z,33.27
2018-11-01T14:11:17.174Z,41.57
2018-11-01T14:13:44.490Z,40.33
2018-11-01T14:16:11.410Z,41.90
2018-11-01T14:18:39.153Z,42.33
2018-11-01T14:21:06.155Z,32.67
2018-11-01T14:23:33.184Z,31.90
2018-11-01T14:26:00.805Z,34.47
2018-11-01T14:28:27.851Z,36.70
2018-11-01T14:30:54.925Z,36.77
2018-11-01T14:33:22.396Z,31.63
2018-11-01T14:35:49.538Z,41.73
2018-11-01T14:38:16.713Z,35.53
2018-11-01T14:40:44.380Z,38.50
2018-11-01T14:43:11.515Z,42.73
2018-11-01T14:45:38.663Z,36.73
2018-11-01T14:48:05.935Z,36.33
2018-11-01T14:50:32.979Z,40.87
2018-11-01T14:53:01.088Z,40.30
2018-11-01T14:55:28.060Z,43.87
2018-11-01T14:57:55.775Z,46.27
2018-11-01T15:00:21.266Z,34.77
2018-11-01T15:02:48.659Z,29.30
2018-11-01T15:05:15.822Z,40.63
2018-11-01T15:07:42.977Z,34.37
2018-11-01T15:10:12.736Z,41.20
2018-11-01T15:12:39.765Z,33.97
2018-11-01T15:15:07.116Z,36.53
2018-11-01T15:17:34.202Z,40.53
2018-11-01T15:20:01.301Z,38.67
2018-11-01T15:22:28.343Z,40.23
2018-11-01T15:24:55.648Z,44.73
2018-11-01T15:27:22.692Z,47.50
2018-11-01T15:29:49.733Z,51.63
2018-11-01T15:32:23.140Z,46.30
2018-11-01T15:34:50.201Z,42.67
2018-11-01T15:37:17.392Z,36.83
2018-11-01T15:39:44.550Z,39.93
2018-11-01T15:42:11.679Z,41.53
2018-11-01T15:44:38.736Z,42.23
2018-11-01T15:47:05.799Z,38.03
2018-11-01T15:49:32.823Z,36.70
2018-11-01T15:51:59.965Z,38.60
2018-11-01T15:54:27.011Z,43.37
2018-11-01T15:56:54.111Z,40.00
2018-11-01T15:59:21.290Z,39.60
2018-11-01T16:01:48.660Z,42.40
2018-11-01T16:04:15.716Z,41.63
2018-11-01T16:06:42.772Z,38.30
2018-11-01T16:09:11.527Z,43.17
2018-11-01T16:11:38.599Z,43.93
2018-11-01T16:14:08.919Z,46.37
2018-11-01T16:16:36.091Z,43.10
2018-11-01T16:19:03.136Z,42.97
2018-11-01T16:21:30.188Z,46.63
2018-11-01T16:23:57.500Z,39.83
2018-11-01T16:26:24.555Z,46.17
2018-11-01T16:28:51.603Z,46.07
2018-11-01T16:31:18.688Z,48.63
2018-11-01T16:33:46.874Z,50.80
2018-11-01T16:36:13.992Z,48.93
2018-11-01T16:38:41.339Z,44.63
2018-11-01T16:41:08.404Z,51.37
2018-11-01T16:43:35.492Z,59.83
2018-11-01T16:46:02.905Z,49.43
2018-11-01T16:48:30.104Z,43.90
2018-11-01T16:50:57.171Z,48.47
2018-11-01T16:53:24.635Z,36.63
2018-11-01T16:55:51.744Z,43.37
2018-11-01T16:58:18.808Z,35.23
2018-11-01T17:00:45.928Z,43.57
2018-11-01T17:03:13.042Z,34.73
2018-11-01T17:05:40.100Z,37.23
2018-11-01T17:08:07.282Z,36.27
2018-11-01T17:10:34.348Z,43.27
2018-11-01T17:13:01.545Z,35.03
2018-11-01T17:15:28.596Z,35.03
2018-11-01T17:17:55.669Z,35.00
2018-11-01T17:20:22.725Z,37.80
2018-11-01T17:22:50.143Z,38.70
2018-11-01T17:25:17.203Z,43.53
2018-11-01T17:27:44.267Z,39.43
2018-11-01T17:30:11.768Z,34.83
2018-11-01T17:32:44.736Z,41.10
2018-11-01T17:35:12.032Z,42.37
2018-11-01T17:37:39.139Z,38.10
2018-11-01T17:40:06.631Z,42.27
2018-11-01T17:42:34.100Z,40.30
2018-11-01T17:45:01.166Z,47.13
2018-11-01T17:47:28.205Z,42.17
2018-11-01T17:49:55.467Z,45.23
2018-11-01T17:52:22.591Z,43.73
2018-11-01T17:54:49.720Z,52.83
2018-11-01T17:57:16.783Z,46.37
2018-11-01T17:59:44.053Z,42.73
2018-11-01T18:02:11.213Z,46.37
2018-11-01T18:04:38.543Z,37.83
2018-11-01T18:07:05.690Z,43.40
2018-11-01T18:09:32.820Z,51.87
2018-11-01T18:12:00.319Z,51.33
2018-11-01T18:14:27.468Z,48.23
2018-11-01T18:16:54.708Z,48.77
2018-11-01T18:19:22.144Z,46.13
2018-11-01T18:21:49.291Z,51.77
2018-11-01T18:24:16.380Z,46.73
2018-11-01T18:26:43.617Z,46.40
2018-11-01T18:29:10.713Z,41.67
2018-11-01T18:31:37.866Z,47.93
2018-11-01T18:34:05.034Z,40.10
2018-11-01T18:36:32.206Z,40.40
2018-11-01T18:38:59.470Z,38.80
2018-11-01T18:41:26.846Z,39.37
2018-11-01T18:43:53.918Z,41.10
2018-11-01T18:46:20.996Z,46.40
2018-11-01T18:48:48.472Z,40.67
2018-11-01T18:51:15.613Z,33.13
2018-11-01T18:53:42.673Z,35.70
2018-11-01T18:56:09.807Z,35.47
2018-11-01T18:58:36.902Z,34.63
2018-11-01T19:01:03.989Z,39.10
2018-11-01T19:03:32.004Z,39.97
2018-11-01T19:06:00.103Z,34.37
2018-11-01T19:08:27.321Z,39.33
2018-11-01T19:10:54.396Z,35.80
2018-11-01T19:13:21.923Z,36.07
2018-11-01T19:15:49.002Z,43.40
2018-11-01T19:18:16.333Z,45.10
2018-11-01T19:20:46.971Z,42.50
2018-11-01T19:23:14.087Z,36.90
2018-11-01T19:25:41.572Z,49.50
2018-11-01T19:28:08.665Z,38.10
2018-11-01T19:30:35.763Z,30.43
2018-11-01T19:33:03.425Z,36.00
2018-11-01T19:35:30.566Z,35.70
2018-11-01T19:37:57.775Z,34.10
2018-11-01T19:40:24.943Z,34.07
2018-11-01T19:42:52.024Z,40.00
2018-11-01T19:45:19.155Z,49.10
2018-11-01T19:47:46.536Z,42.10
2018-11-01T19:50:14.760Z,46.07
2018-11-01T19:52:41.877Z,41.70
2018-11-01T19:55:09.224Z,38.30
2018-11-01T19:57:36.277Z,30.40
2018-11-01T20:00:03.760Z,44.73
2018-11-01T20:02:31.336Z,35.60
2018-11-01T20:04:58.373Z,34.57
2018-11-01T20:07:25.433Z,46.13
2018-11-01T20:09:52.568Z,37.80
2018-11-01T20:12:19.680Z,46.80
2018-11-01T20:14:46.827Z,36.97
2018-11-01T20:17:14.321Z,39.80
2018-11-01T20:19:42.506Z,36.27
2018-11-01T20:22:09.581Z,38.03
2018-11-01T20:24:36.942Z,31.33
2018-11-01T20:27:04.556Z,28.90
2018-11-01T20:29:31.746Z,33.20
2018-11-01T20:31:59.313Z,30.07
2018-11-01T20:34:26.284Z,32.10
2018-11-01T20:36:53.417Z,33.93
2018-11-01T20:39:20.793Z,27.23
2018-11-01T20:41:47.852Z,31.67
2018-11-01T20:44:14.971Z,19.40
2018-11-01T20:46:42.082Z,27.50
2018-11-01T20:49:09.165Z,24.60
2018-11-01T20:51:36.221Z,25.50
2018-11-01T20:54:03.920Z,23.67
2018-11-01T20:56:30.992Z,21.47
2018-11-01T20:58:58.527Z,23.93
2018-11-01T21:01:25.823Z,26.07
2018-11-01T21:03:52.888Z,33.37
2018-11-01T21:06:20.073Z,32.50
2018-11-01T21:08:47.149Z,21.87
2018-11-01T21:11:14.245Z,27.13
2018-11-01T21:13:41.802Z,26.80
2018-11-01T21:16:09.004Z,22.30
2018-11-01T21:18:36.134Z,28.10
2018-11-01T21:21:03.199Z,23.50
2018-11-01T21:23:30.256Z,19.67
2018-11-01T21:25:57.335Z,23.33
2018-11-01T21:28:24.388Z,23.70
2018-11-01T21:30:51.592Z,28.50
2018-11-01T21:33:18.648Z,20.00
2018-11-01T21:35:45.727Z,25.93
2018-11-01T21:38:12.868Z,22.70
2018-11-01T21:40:39.971Z,24.93
2018-11-01T21:43:07.107Z,23.63
2018-11-01T21:45:34.201Z,21.20
2018-11-01T21:48:01.276Z,28.43
2018-11-01T21:50:28.336Z,36.10
2018-11-01T21:52:55.537Z,34.50
2018-11-01T21:55:22.591Z,33.17
2018-11-01T21:57:49.673Z,32.97
2018-11-01T22:00:17.053Z,31.40
2018-11-01T22:02:44.254Z,20.43
2018-11-01T22:05:11.580Z,27.03
2018-11-01T22:07:39.328Z,22.43
2018-11-01T22:10:08.416Z,25.50
2018-11-01T22:12:36.255Z,34.73
2018-11-01T22:15:04.811Z,25.60
2018-11-01T22:17:31.951Z,32.90
2018-11-01T22:19:59.739Z,27.60
2018-11-01T22:22:26.915Z,20.73
2018-11-01T22:24:54.106Z,23.33
2018-11-01T22:27:21.219Z,24.77
2018-11-01T22:29:48.443Z,23.90
2018-11-01T22:32:15.524Z,27.50
2018-11-01T22:34:42.760Z,25.70
2018-11-01T22:37:10.227Z,29.50
2018-11-01T22:39:37.431Z,23.00
2018-11-01T22:42:04.790Z,25.40
2018-11-01T22:44:31.944Z,26.87
2018-11-01T22:46:59.111Z,21.97
2018-11-01T22:49:26.352Z,23.53
2018-11-01T22:51:53.864Z,26.93
2018-11-01T22:54:22.204Z,20.80
2018-11-01T22:56:50.627Z,25.87
2018-11-01T22:59:19.455Z,20.00
2018-11-01T23:01:46.569Z,26.10
2018-11-01T23:04:13.724Z,28.43
2018-11-01T23:06:41.064Z,26.70
2018-11-01T23:09:14.631Z,21.23
2018-11-01T23:11:43.985Z,23.70
2018-11-01T23:14:11.031Z,25.00
2018-11-01T23:16:38.421Z,26.00
2018-11-01T23:19:05.894Z,24.87
2018-11-01T23:21:39.479Z,24.73
2018-11-01T23:24:06.800Z,26.87
2018-11-01T23:26:33.874Z,25.10
2018-11-01T23:29:00.963Z,18.97
2018-11-01T23:31:28.061Z,24.67
2018-11-01T23:33:55.126Z,26.80
2018-11-01T23:36:21.804Z,30.13
2018-11-01T23:38:54.802Z,24.23
2018-11-01T23:41:27.928Z,25.67
2018-11-01T23:44:01.161Z,23.00
2018-11-01T23:46:34.100Z,24.40
2018-11-01T23:49:22.861Z,21.27
2018-11-01T23:51:55.873Z,28.20
2018-11-01T23:54:23.055Z,24.87
2018-11-01T23:56:50.175Z,23.33
2018-11-01T23:59:18.030Z,25.93
